Decoded Metar for KAXN (ALEXANDRIA in MN, USA) (IATA:AXN) | Meteo·Mobile Aviation Weather
aviador You're here:

KAXN Decoded Metar

ALEXANDRIA in MN, USA
Report Time2018-09-22 17:53:00
UTC Time2018-09-22 18:28:38
Flight Rules vfr VFR
Wind160° at 11 Gusting to 22 kt
W.Decomp.*RWY 13: 9.9 kt HW 4.8 kt RCW
RWY 22: 4.8 kt HW 9.9 kt LCW
W.Rank160° ranks 11
Current wind is above 160° avg. (10.3)
Visibility9999 m
Phenomena:N/A
Clouds:Few 075 Hf
Scattered 110 Hf
Expected CloudBase > 4,000 ft AGL from Temp-Dew spread
CeilingNone
Temp17°C (ISA +5)
Dew Point07°C (52% RH)
AAT12.4°C
QNH1020 hPa
Density Alt1,893 ft
Elevation1,421 ft
Report Wrong Elevation
Raw Report
KAXN 221753Z AUTO 16011G22KT 10SM FEW075 SCT110 17/07 A3013 RMK
AO2 SLP208 T01670067 10172 20089 58024=

Extra information for KAXN:More info

Metar Taf Metar & Taf Last 4 Metars F.Rules Stats Wind Profile Meteogram Temp Stats Airport Information Weather charts Add Link Nearby VenuesMetar ALERT Operation Metar Decoded Social comments

AIRNAV info for KAXN